Time;durP1;ratioP1;P1;durP2;ratioP2;P2;SDS_P1;SDS_P2;PMS_P1;PMS_P2;Temp;Humidity;BMP_temperature;BMP_pressure;BME280_temperature;BME280_humidity;BME280_pressure;Samples;Min_cycle;Max_cycle;Signal;HPM_P1;HPM_P2
2023/12/30 00:01:33;;;;;;;6.50;3.90;;;;;;;8.05;100.00;100061.50;6031507;23;20509;-70
2023/12/30 00:04:00;;;;;;;3.30;3.20;;;;;;;7.97;100.00;100044.44;6028788;23;20018;-71
2023/12/30 00:06:27;;;;;;;3.85;3.65;;;;;;;7.41;100.00;99959.41;6002661;23;20019;-72
2023/12/30 00:08:53;;;;;;;3.33;3.22;;;;;;;7.73;100.00;100037.88;6028925;23;20022;-71
2023/12/30 00:11:19;;;;;;;3.95;3.75;;;;;;;7.33;100.00;99978.06;6015617;23;20033;-70
2023/12/30 00:13:46;;;;;;;3.75;3.63;;;;;;;7.94;100.00;100064.69;6033125;23;20022;-74
2023/12/30 00:16:15;;;;;;;5.40;3.75;;;;;;;7.70;100.00;100033.66;6038971;23;20026;-71
2023/12/30 00:18:45;;;;;;;4.80;3.20;;;;;;;8.05;100.00;100071.97;6012417;23;20297;-73
2023/12/30 00:21:17;;;;;;;4.57;4.38;;;;;;;7.94;100.00;100049.84;6031324;23;20549;-71
2023/12/30 00:23:43;;;;;;;5.27;3.47;;;;;;;8.03;100.00;100032.84;6019971;23;20019;-72
2023/12/30 00:26:25;;;;;;;4.25;3.95;;;;;;;7.93;100.00;100021.19;6008515;23;20104;-71
2023/12/30 00:28:52;;;;;;;7.22;3.72;;;;;;;8.02;100.00;100036.38;6038784;23;20027;-71
2023/12/30 00:31:27;;;;;;;3.92;3.72;;;;;;;7.97;100.00;100017.47;6011789;23;20147;-72
2023/12/30 00:33:56;;;;;;;12.25;3.60;;;;;;;7.97;100.00;100020.94;6040218;23;20505;-72
2023/12/30 00:36:22;;;;;;;3.75;3.58;;;;;;;8.15;100.00;100044.41;6041076;23;20041;-72
2023/12/30 00:38:50;;;;;;;3.80;3.50;;;;;;;8.29;100.00;100038.47;6040959;23;20010;-72
2023/12/30 00:41:16;;;;;;;4.28;3.97;;;;;;;8.33;100.00;100025.13;6031086;23;20028;-70
2023/12/30 00:43:43;;;;;;;7.45;3.70;;;;;;;8.42;100.00;100025.59;6034578;23;20151;-70
2023/12/30 00:46:09;;;;;;;4.28;4.05;;;;;;;8.48;100.00;100014.81;6028235;23;20030;-69
2023/12/30 00:48:36;;;;;;;12.30;3.83;;;;;;;8.48;100.00;100012.19;6014192;23;20042;-71
2023/12/30 00:51:03;;;;;;;4.18;3.97;;;;;;;8.14;100.00;99956.50;6036152;23;20141;-70
2023/12/30 00:53:29;;;;;;;3.70;3.55;;;;;;;8.39;100.00;100040.50;6037732;23;20098;-70
2023/12/30 00:55:57;;;;;;;3.65;3.45;;;;;;;8.47;100.00;100032.28;6037154;23;20113;-73
2023/12/30 00:58:24;;;;;;;3.55;3.40;;;;;;;8.43;100.00;100017.69;6019944;23;20046;-73
2023/12/30 01:00:51;;;;;;;3.53;3.33;;;;;;;8.59;100.00;100041.22;6009505;23;20430;-71
2023/12/30 01:03:18;;;;;;;5.78;3.80;;;;;;;8.24;100.00;100004.75;6014860;23;20068;-72
2023/12/30 01:05:45;;;;;;;5.28;3.70;;;;;;;8.44;100.00;99995.84;6036780;23;20033;-72
2023/12/30 01:08:12;;;;;;;3.63;3.42;;;;;;;8.57;100.00;100035.22;6014008;23;20026;-72
2023/12/30 01:10:38;;;;;;;4.53;4.20;;;;;;;8.17;100.00;99957.16;6023068;23;20108;-72
2023/12/30 01:13:08;;;;;;;5.05;4.80;;;;;;;8.57;100.00;100043.09;6046108;23;20041;-73
2023/12/30 01:15:35;;;;;;;4.18;3.80;;;;;;;8.52;100.00;100045.09;6024258;23;20042;-71
2023/12/30 01:18:02;;;;;;;3.80;3.60;;;;;;;8.41;100.00;100043.06;6024720;23;20029;-72
2023/12/30 01:20:30;;;;;;;4.38;4.13;;;;;;;8.48;100.00;100023.50;6035787;23;20297;-72
2023/12/30 01:22:57;;;;;;;5.40;5.07;;;;;;;8.23;100.00;99981.28;6003612;23;20693;-71
2023/12/30 01:25:23;;;;;;;3.80;3.60;;;;;;;8.16;100.00;99947.63;6036367;23;20034;-70
2023/12/30 01:27:50;;;;;;;3.78;3.60;;;;;;;8.52;100.00;100011.09;6042098;23;20068;-73
2023/12/30 01:30:16;;;;;;;4.57;4.13;;;;;;;8.55;100.00;99983.00;6035701;23;20026;-72
2023/12/30 01:32:44;;;;;;;4.30;3.85;;;;;;;8.61;100.00;99955.69;6041302;23;20090;-70
2023/12/30 01:35:11;;;;;;;5.38;5.07;;;;;;;8.45;100.00;99955.69;6009720;23;20034;-71
2023/12/30 01:37:39;;;;;;;3.90;3.70;;;;;;;8.22;100.00;99956.06;6039264;23;20049;-70
2023/12/30 01:40:06;;;;;;;16.65;3.92;;;;;;;8.36;100.00;99998.00;6011795;23;20025;-69
2023/12/30 01:42:32;;;;;;;4.07;3.88;;;;;;;8.15;100.00;99979.06;6057089;23;20027;-73
2023/12/30 01:44:58;;;;;;;4.93;4.50;;;;;;;8.46;100.00;99995.75;6044611;23;20034;-71
2023/12/30 01:47:26;;;;;;;4.22;3.92;;;;;;;8.03;100.00;99951.00;6046734;23;20505;-74
2023/12/30 01:49:53;;;;;;;3.80;3.50;;;;;;;8.35;100.00;100014.59;6047060;23;20007;-72
2023/12/30 01:52:19;;;;;;;3.60;3.50;;;;;;;8.21;100.00;100025.78;6037353;23;20085;-71
2023/12/30 01:54:46;;;;;;;3.90;3.70;;;;;;;7.76;100.00;99994.16;6039837;23;20334;-71
2023/12/30 01:57:12;;;;;;;3.92;3.72;;;;;;;7.06;100.00;99872.50;5987461;23;20226;-72
2023/12/30 01:59:40;;;;;;;8.63;4.22;;;;;;;8.13;100.00;100061.94;6037320;23;20027;-71
2023/12/30 02:02:06;;;;;;;4.25;3.92;;;;;;;7.98;100.00;100076.66;6042046;23;20052;-71
2023/12/30 02:04:33;;;;;;;3.60;3.40;;;;;;;7.92;100.00;100111.78;6042137;23;20746;-72
2023/12/30 02:06:59;;;;;;;4.60;4.30;;;;;;;7.80;100.00;100052.31;6035874;23;20185;-74
2023/12/30 02:09:26;;;;;;;4.68;4.30;;;;;;;7.62;100.00;100033.22;6044569;23;20078;-72
2023/12/30 02:11:53;;;;;;;4.40;3.90;;;;;;;8.11;100.00;100123.91;6040259;23;20027;-70
2023/12/30 02:14:22;;;;;;;4.00;3.80;;;;;;;7.96;100.00;100102.03;6038206;23;20025;-69
2023/12/30 02:16:49;;;;;;;4.25;3.95;;;;;;;7.86;100.00;100135.63;6038947;23;20042;-71
2023/12/30 02:19:15;;;;;;;5.53;3.60;;;;;;;6.73;100.00;99954.09;6036679;23;20185;-71
2023/12/30 02:21:42;;;;;;;6.18;3.95;;;;;;;7.54;100.00;100098.88;6047950;23;20042;-74
2023/12/30 02:24:08;;;;;;;9.32;4.07;;;;;;;7.86;100.00;100159.13;6027640;23;20122;-72
2023/12/30 02:26:35;;;;;;;3.97;3.72;;;;;;;7.75;100.00;100146.56;6041537;23;20026;-72
2023/12/30 02:29:01;;;;;;;5.10;4.85;;;;;;;7.44;100.00;100108.06;6040432;23;20093;-70
2023/12/30 02:31:28;;;;;;;4.90;4.18;;;;;;;7.80;100.00;100190.78;6011186;23;20022;-71
2023/12/30 02:33:54;;;;;;;5.03;3.78;;;;;;;7.77;100.00;100199.59;6041461;23;20593;-71
2023/12/30 02:36:21;;;;;;;15.98;4.20;;;;;;;7.84;100.00;100236.72;6008119;23;20030;-70
2023/12/30 02:38:48;;;;;;;9.82;3.42;;;;;;;8.04;100.00;100253.19;6044725;23;20026;-70
2023/12/30 02:41:14;;;;;;;4.55;4.03;;;;;;;7.16;100.00;100096.34;6043317;23;20517;-71
2023/12/30 02:43:56;;;;;;;3.50;3.40;;;;;;;8.06;100.00;100217.38;6022209;23;20118;-71
2023/12/30 02:46:23;;;;;;;3.50;3.40;;;;;;;7.56;100.00;100143.19;6038149;23;20058;-72
2023/12/30 02:48:49;;;;;;;3.80;3.60;;;;;;;7.97;100.00;100187.31;6046036;23;20303;-70
2023/12/30 02:51:16;;;;;;;5.93;3.72;;;;;;;7.93;100.00;100201.47;6042262;23;20521;-72
2023/12/30 02:53:43;;;;;;;3.83;3.63;;;;;;;7.56;100.00;100175.38;6048365;23;20116;-71
2023/12/30 02:56:19;;;;;;;3.70;3.50;;;;;;;7.92;100.00;100258.09;6019152;23;20391;-71
2023/12/30 02:58:57;;;;;;;3.63;3.42;;;;;;;7.90;100.00;100264.31;6049546;23;20014;-73
2023/12/30 03:01:25;;;;;;;4.00;3.78;;;;;;;7.43;100.00;100205.56;6019772;23;20263;-73
2023/12/30 03:03:54;;;;;;;5.05;4.32;;;;;;;7.88;100.00;100285.28;6036996;23;20026;-71
2023/12/30 03:06:21;;;;;;;3.42;3.33;;;;;;;7.79;100.00;100257.81;6034456;23;20014;-72
2023/12/30 03:08:51;;;;;;;3.75;3.55;;;;;;;7.88;100.00;100260.94;6043408;23;20592;-73
2023/12/30 03:11:19;;;;;;;3.90;3.40;;;;;;;7.62;100.00;100217.75;6056934;23;20018;-72
2023/12/30 03:13:45;;;;;;;3.17;3.08;;;;;;;7.96;100.00;100250.97;6060170;23;20549;-71
2023/12/30 03:16:15;;;;;;;3.85;3.65;;;;;;;7.31;100.00;100131.31;6026030;23;20030;-72
2023/12/30 03:18:42;;;;;;;4.05;3.75;;;;;;;7.64;100.00;100205.47;6055917;23;20380;-71
2023/12/30 03:21:10;;;;;;;5.68;4.72;;;;;;;7.64;100.00;100237.69;6054298;23;20022;-73
2023/12/30 03:23:37;;;;;;;4.20;3.50;;;;;;;7.70;100.00;100260.91;6039192;23;20023;-72
2023/12/30 03:26:05;;;;;;;3.30;3.20;;;;;;;7.71;100.00;100256.50;6047680;23;20026;-73
2023/12/30 03:28:34;;;;;;;5.05;4.75;;;;;;;6.86;100.00;100163.00;6056120;23;20022;-72
2023/12/30 03:31:01;;;;;;;13.38;4.50;;;;;;;7.67;100.00;100296.75;6054092;23;20067;-72
2023/12/30 03:33:27;;;;;;;7.90;4.03;;;;;;;7.19;100.00;100211.00;6029463;23;20089;-74
2023/12/30 03:35:54;;;;;;;3.70;3.50;;;;;;;7.76;100.00;100286.72;6058691;23;20524;-71
2023/12/30 03:38:21;;;;;;;4.03;3.83;;;;;;;7.65;100.00;100285.53;6052718;23;20026;-71
2023/12/30 03:40:47;;;;;;;5.18;3.70;;;;;;;7.09;100.00;100195.84;6055956;23;20097;-71
2023/12/30 03:43:14;;;;;;;10.57;3.95;;;;;;;7.17;100.00;100223.28;6054695;23;20026;-72
2023/12/30 03:45:40;;;;;;;3.80;3.60;;;;;;;7.62;100.00;100298.72;6052661;23;20512;-70
2023/12/30 03:48:08;;;;;;;3.92;3.67;;;;;;;7.31;100.00;100261.81;6034668;23;20027;-71
2023/12/30 03:50:36;;;;;;;5.60;4.10;;;;;;;7.42;100.00;100289.19;6053455;23;20017;-71
2023/12/30 03:53:04;;;;;;;4.68;4.38;;;;;;;7.37;100.00;100318.13;6054315;23;20109;-71
2023/12/30 03:55:30;;;;;;;3.63;3.47;;;;;;;7.39;100.00;100314.50;6052241;23;20515;-70
2023/12/30 03:57:57;;;;;;;3.33;3.22;;;;;;;7.47;100.00;100313.34;6056178;23;20103;-71
2023/12/30 04:00:24;;;;;;;3.53;3.42;;;;;;;7.30;100.00;100273.19;6056202;23;20031;-74
2023/12/30 04:02:51;;;;;;;11.45;3.88;;;;;;;7.17;100.00;100217.22;6055894;23;20120;-73
2023/12/30 04:05:17;;;;;;;4.13;3.92;;;;;;;7.51;100.00;100280.94;6053579;23;20334;-72
2023/12/30 04:07:44;;;;;;;4.07;3.55;;;;;;;7.26;100.00;100240.31;6055151;23;20019;-71
2023/12/30 04:10:12;;;;;;;3.67;3.42;;;;;;;7.65;100.00;100314.25;6053294;23;20030;-73
2023/12/30 04:12:39;;;;;;;3.90;3.70;;;;;;;7.62;100.00;100319.59;6034892;23;20053;-72
2023/12/30 04:15:07;;;;;;;4.88;4.50;;;;;;;7.64;100.00;100331.69;6020732;23;20023;-71
2023/12/30 04:17:33;;;;;;;3.50;3.40;;;;;;;7.53;100.00;100316.50;6024458;23;20368;-72
2023/12/30 04:20:00;;;;;;;14.55;3.40;;;;;;;7.45;100.00;100344.72;5983728;23;20027;-70
2023/12/30 04:22:28;;;;;;;3.20;3.10;;;;;;;7.10;100.00;100286.28;6024510;23;20033;-72
2023/12/30 04:24:56;;;;;;;4.32;3.83;;;;;;;7.17;100.00;100308.56;6029216;23;20010;-72
2023/12/30 04:27:24;;;;;;;3.55;3.40;;;;;;;7.44;100.00;100352.63;6021160;23;20094;-72
2023/12/30 04:29:50;;;;;;;3.28;3.17;;;;;;;6.74;100.00;100264.34;6023729;23;20099;-72
2023/12/30 04:32:18;;;;;;;5.93;3.58;;;;;;;7.10;100.00;100368.00;6032448;23;20470;-72
2023/12/30 04:34:45;;;;;;;4.25;3.88;;;;;;;7.18;100.00;100376.34;6027315;23;20015;-73
2023/12/30 04:37:12;;;;;;;7.35;4.30;;;;;;;7.12;100.00;100374.00;6018480;23;20097;-72
2023/12/30 04:39:39;;;;;;;4.28;4.07;;;;;;;7.19;100.00;100398.91;6036501;23;20031;-73
2023/12/30 04:42:05;;;;;;;3.70;3.50;;;;;;;7.44;100.00;100423.09;6024123;23;20023;-71
2023/12/30 04:44:32;;;;;;;6.00;3.90;;;;;;;7.20;100.00;100376.31;6037821;23;20030;-71
2023/12/30 04:46:58;;;;;;;7.97;4.57;;;;;;;7.57;100.00;100425.13;6035421;23;20160;-71
2023/12/30 04:49:25;;;;;;;3.40;3.30;;;;;;;7.50;100.00;100394.16;6018888;23;20023;-72
2023/12/30 04:51:51;;;;;;;3.25;3.15;;;;;;;7.33;100.00;100387.03;6021808;23;20485;-70
2023/12/30 04:54:18;;;;;;;4.53;3.60;;;;;;;6.94;100.00;100349.56;6024987;23;20032;-70
2023/12/30 04:56:44;;;;;;;4.35;4.03;;;;;;;7.19;100.00;100411.97;6021931;23;20015;-72
2023/12/30 04:59:11;;;;;;;4.82;4.57;;;;;;;7.27;100.00;100429.91;6027989;23;20026;-71
2023/12/30 05:01:38;;;;;;;3.83;3.63;;;;;;;7.25;100.00;100438.72;6039226;23;20085;-71
2023/12/30 05:04:07;;;;;;;4.28;3.75;;;;;;;6.70;100.00;100343.63;6031246;23;20034;-71
2023/12/30 05:06:33;;;;;;;3.40;3.30;;;;;;;7.04;100.00;100390.94;6041849;23;20127;-71
2023/12/30 05:09:00;;;;;;;6.03;5.45;;;;;;;6.99;100.00;100378.88;6037557;23;20031;-72
2023/12/30 05:11:27;;;;;;;3.60;3.40;;;;;;;7.11;100.00;100408.00;6027913;23;20010;-70
2023/12/30 05:13:54;;;;;;;3.90;3.70;;;;;;;7.11;100.00;100421.88;6022990;23;20503;-71
2023/12/30 05:16:20;;;;;;;3.65;3.45;;;;;;;6.82;100.00;100384.00;6026394;23;20025;-72
2023/12/30 05:18:47;;;;;;;3.40;3.30;;;;;;;7.05;100.00;100429.97;6027324;23;20084;-72
2023/12/30 05:21:15;;;;;;;3.50;3.40;;;;;;;7.14;100.00;100458.31;6028943;23;20033;-72
2023/12/30 05:23:42;;;;;;;4.10;3.80;;;;;;;7.12;100.00;100460.13;6027396;23;20035;-72
2023/12/30 05:26:12;;;;;;;4.15;3.72;;;;;;;7.00;100.00;100458.03;5997890;23;20542;-71
2023/12/30 05:28:38;;;;;;;3.97;3.78;;;;;;;6.95;100.00;100459.97;6023251;23;20027;-72
2023/12/30 05:31:05;;;;;;;4.55;4.35;;;;;;;6.96;100.00;100472.13;6023463;23;20347;-73
2023/12/30 05:33:31;;;;;;;4.10;3.83;;;;;;;6.95;100.00;100481.69;5999317;23;20165;-74
2023/12/30 05:35:58;;;;;;;3.72;3.53;;;;;;;6.93;100.00;100465.25;6028538;23;20053;-70
2023/12/30 05:38:25;;;;;;;4.45;4.13;;;;;;;6.92;100.00;100471.38;5998306;23;20031;-71
2023/12/30 05:40:51;;;;;;;4.75;3.63;;;;;;;6.66;100.00;100432.47;6024652;23;20027;-74
2023/12/30 05:43:18;;;;;;;8.38;3.72;;;;;;;6.76;100.00;100449.44;6024960;23;20035;-73
2023/12/30 05:45:44;;;;;;;3.72;3.42;;;;;;;6.94;100.00;100487.81;6008512;23;20422;-71
2023/12/30 05:48:13;;;;;;;3.58;3.33;;;;;;;6.98;100.00;100475.50;6028958;23;20472;-72
2023/12/30 05:50:39;;;;;;;3.58;3.47;;;;;;;6.94;100.00;100468.72;6001686;23;20023;-71
2023/12/30 05:53:06;;;;;;;8.63;5.20;;;;;;;6.75;100.00;100452.94;6028827;23;20090;-72
2023/12/30 05:55:33;;;;;;;3.28;3.17;;;;;;;7.05;100.00;100465.66;6027726;23;20039;-73
2023/12/30 05:57:59;;;;;;;3.50;3.30;;;;;;;7.05;100.00;100476.94;6028793;23;20046;-72
2023/12/30 06:00:26;;;;;;;4.00;3.75;;;;;;;6.56;100.00;100406.75;6029204;23;20011;-71
2023/12/30 06:02:52;;;;;;;3.83;3.50;;;;;;;6.73;100.00;100453.00;6027428;23;20090;-71
2023/12/30 06:05:19;;;;;;;3.65;3.17;;;;;;;6.95;100.00;100496.50;6024448;23;20019;-72
2023/12/30 06:07:46;;;;;;;3.90;3.70;;;;;;;6.51;100.00;100419.13;6029506;23;20047;-73
2023/12/30 06:10:13;;;;;;;4.38;3.45;;;;;;;7.09;100.00;100495.94;6041581;23;20462;-71
2023/12/30 06:12:39;;;;;;;4.00;3.67;;;;;;;6.95;100.00;100493.88;6032199;23;20030;-71
2023/12/30 06:15:06;;;;;;;4.60;4.30;;;;;;;7.13;100.00;100489.69;6032063;23;20033;-72
2023/12/30 06:17:33;;;;;;;3.38;3.28;;;;;;;6.98;100.00;100454.63;6043235;23;20030;-71
2023/12/30 06:20:00;;;;;;;3.40;3.20;;;;;;;7.02;100.00;100477.09;6043697;23;20248;-71
2023/12/30 06:22:27;;;;;;;4.00;3.65;;;;;;;5.95;100.00;100299.75;6034014;23;20023;-72
2023/12/30 06:24:53;;;;;;;6.07;3.80;;;;;;;6.55;100.00;100401.59;6037335;23;20023;-72
2023/12/30 06:27:20;;;;;;;3.92;3.53;;;;;;;6.53;100.00;100398.22;6011586;23;20125;-70
2023/12/30 06:29:47;;;;;;;3.78;3.58;;;;;;;6.47;100.00;100409.72;6033422;23;20023;-70
2023/12/30 06:32:13;;;;;;;3.45;3.33;;;;;;;6.68;100.00;100473.22;6011743;23;20026;-72
2023/12/30 06:34:40;;;;;;;3.30;3.20;;;;;;;6.31;100.00;100438.16;6035720;23;20473;-71
2023/12/30 06:37:07;;;;;;;4.82;4.63;;;;;;;6.78;100.00;100537.16;6046295;23;20030;-71
2023/12/30 06:39:34;;;;;;;3.45;3.35;;;;;;;6.99;100.00;100571.13;6043781;23;20256;-71
2023/12/30 06:42:00;;;;;;;3.80;3.60;;;;;;;7.01;100.00;100569.28;6026415;23;22803;-73
2023/12/30 06:44:27;;;;;;;4.32;3.40;;;;;;;7.03;100.00;100580.53;6024699;23;20446;-69
2023/12/30 06:46:54;;;;;;;11.48;4.70;;;;;;;6.76;100.00;100522.47;6023229;23;20024;-71
2023/12/30 06:49:20;;;;;;;3.35;3.17;;;;;;;7.03;100.00;100540.53;5995096;23;20030;-71
2023/12/30 06:51:47;;;;;;;4.40;4.10;;;;;;;7.18;100.00;100551.22;6033757;23;20014;-71
2023/12/30 06:54:14;;;;;;;4.40;3.75;;;;;;;7.22;100.00;100569.34;6038826;23;20304;-72
2023/12/30 06:56:40;;;;;;;3.55;3.35;;;;;;;6.81;100.00;100499.66;6018645;23;20084;-73
2023/12/30 06:59:07;;;;;;;5.93;4.43;;;;;;;7.11;100.00;100539.31;6034926;23;20062;-72
2023/12/30 07:01:37;;;;;;;4.05;3.70;;;;;;;7.26;100.00;100500.47;6014858;23;20038;-72
2023/12/30 07:04:04;;;;;;;3.53;3.38;;;;;;;7.09;100.00;100452.41;6041547;23;20038;-72
2023/12/30 07:06:30;;;;;;;4.00;3.70;;;;;;;7.15;100.00;100446.94;6005607;23;20021;-71
2023/12/30 07:08:59;;;;;;;5.80;5.28;;;;;;;7.41;100.00;100493.75;6026342;23;20705;-71
2023/12/30 07:11:25;;;;;;;4.13;3.50;;;;;;;7.50;100.00;100491.59;6018284;23;20191;-72
2023/12/30 07:13:52;;;;;;;11.35;4.32;;;;;;;7.08;100.00;100437.69;6033110;23;20344;-73
2023/12/30 07:16:19;;;;;;;3.20;3.10;;;;;;;6.18;100.00;100315.31;6037277;23;20153;-72
2023/12/30 07:18:45;;;;;;;3.42;3.13;;;;;;;7.04;100.00;100487.47;6035002;23;20186;-71
2023/12/30 07:21:12;;;;;;;6.97;4.10;;;;;;;6.99;100.00;100503.28;6008869;23;20291;-72
2023/12/30 07:23:39;;;;;;;3.70;3.33;;;;;;;6.95;100.00;100536.47;6038913;23;20104;-71
2023/12/30 07:26:07;;;;;;;4.03;3.63;;;;;;;6.68;100.00;100503.66;6036554;23;20027;-72
2023/12/30 07:28:33;;;;;;;3.35;3.25;;;;;;;7.21;100.00;100585.94;6029002;23;20387;-71
2023/12/30 07:31:00;;;;;;;5.07;4.65;;;;;;;7.23;100.00;100576.28;6012498;23;20011;-73
2023/12/30 07:33:27;;;;;;;3.45;3.30;;;;;;;7.30;100.00;100580.34;6032362;23;20018;-73
2023/12/30 07:35:56;;;;;;;3.50;3.30;;;;;;;7.26;100.00;100563.97;6023940;23;20035;-71
2023/12/30 07:38:23;;;;;;;11.27;3.22;;;;;;;7.18;100.00;100555.59;6027966;23;20490;-70
2023/12/30 07:40:49;;;;;;;3.72;3.45;;;;;;;6.79;100.00;100496.25;6039512;23;20070;-70
2023/12/30 07:43:16;;;;;;;3.40;3.30;;;;;;;7.27;100.00;100585.69;6036992;23;20031;-71
2023/12/30 07:45:42;;;;;;;15.23;4.47;;;;;;;6.96;100.00;100546.00;6041711;23;20022;-70
2023/12/30 07:48:08;;;;;;;5.22;3.80;;;;;;;7.24;100.00;100572.78;6033025;23;20031;-71
2023/12/30 07:50:35;;;;;;;3.25;3.10;;;;;;;7.11;100.00;100557.59;6041690;23;20022;-72
2023/12/30 07:53:02;;;;;;;4.65;4.45;;;;;;;7.33;100.00;100595.88;6009640;23;20035;-70
2023/12/30 07:55:29;;;;;;;4.53;4.13;;;;;;;6.87;100.00;100511.59;6041369;23;20025;-70
2023/12/30 07:57:56;;;;;;;3.85;3.63;;;;;;;7.03;100.00;100540.53;6023625;23;20035;-72
2023/12/30 08:00:22;;;;;;;11.32;3.67;;;;;;;6.84;100.00;100491.72;6033685;23;20026;-71
2023/12/30 08:02:49;;;;;;;3.65;3.45;;;;;;;6.44;100.00;100422.91;6001705;23;20031;-71
2023/12/30 08:05:15;;;;;;;3.85;3.55;;;;;;;6.99;100.00;100493.69;6006195;23;20698;-70
2023/12/30 08:07:45;;;;;;;10.80;4.70;;;;;;;7.02;100.00;100490.13;5985052;23;20238;-70
2023/12/30 08:10:12;;;;;;;3.80;3.60;;;;;;;6.93;100.00;100472.22;6028476;23;20526;-71
2023/12/30 08:12:39;;;;;;;3.22;3.13;;;;;;;7.52;100.00;100562.88;6037387;23;20022;-72
2023/12/30 08:15:06;;;;;;;5.05;4.85;;;;;;;6.93;100.00;100483.50;6008247;23;20019;-73
2023/12/30 08:17:32;;;;;;;4.20;4.00;;;;;;;7.38;100.00;100558.22;6027276;23;20426;-71
2023/12/30 08:19:59;;;;;;;3.60;3.50;;;;;;;7.52;100.00;100575.09;5982226;23;20014;-72
2023/12/30 08:22:25;;;;;;;4.72;4.43;;;;;;;7.48;100.00;100576.97;6027639;23;20022;-73
2023/12/30 08:24:53;;;;;;;4.60;4.30;;;;;;;6.09;100.00;100356.50;6025975;23;20019;-71
2023/12/30 08:27:20;;;;;;;4.05;3.63;;;;;;;7.49;100.00;100578.66;6043823;23;20022;-70
2023/12/30 08:29:48;;;;;;;4.07;3.85;;;;;;;7.59;100.00;100585.19;6006923;23;20031;-73
2023/12/30 08:32:15;;;;;;;3.47;3.33;;;;;;;7.64;100.00;100586.78;6037063;23;20491;-71
2023/12/30 08:34:42;;;;;;;5.20;4.20;;;;;;;7.13;100.00;100494.91;6041357;23;20068;-71
2023/12/30 08:37:09;;;;;;;6.03;5.63;;;;;;;7.13;100.00;100476.63;6032532;23;20587;-70
2023/12/30 08:39:37;;;;;;;4.47;4.10;;;;;;;7.76;100.00;100597.56;6036926;23;20046;-70
2023/12/30 08:42:06;;;;;;;4.35;3.95;;;;;;;7.49;100.00;100533.44;6037591;23;20044;-72
2023/12/30 08:44:33;;;;;;;3.53;3.25;;;;;;;7.41;100.00;100514.63;6020159;23;20486;-71
2023/12/30 08:46:59;;;;;;;4.68;4.47;;;;;;;7.43;100.00;100502.38;6039086;23;20299;-71
2023/12/30 08:49:26;;;;;;;3.60;3.50;;;;;;;7.33;100.00;100494.06;5994830;23;20462;-72
2023/12/30 08:51:52;;;;;;;4.65;3.88;;;;;;;7.22;100.00;100489.31;6045447;23;20575;-72
2023/12/30 08:54:19;;;;;;;9.85;4.07;;;;;;;7.70;100.00;100560.44;6036558;23;20180;-72
2023/12/30 08:56:45;;;;;;;3.65;3.45;;;;;;;6.79;100.00;100418.00;6041468;23;20378;-71
2023/12/30 08:59:12;;;;;;;5.60;4.43;;;;;;;7.84;100.00;100592.03;5980024;23;20408;-71
2023/12/30 09:01:38;;;;;;;3.78;3.58;;;;;;;7.86;100.00;100592.81;6034120;23;20457;-70
2023/12/30 09:04:08;;;;;;;4.53;3.92;;;;;;;7.61;100.00;100530.31;6041119;23;20438;-71
2023/12/30 09:06:34;;;;;;;4.70;4.25;;;;;;;7.77;100.00;100557.47;5995748;23;20099;-72
2023/12/30 09:09:01;;;;;;;8.82;5.47;;;;;;;7.89;100.00;100571.75;6023826;23;20038;-71
2023/12/30 09:11:27;;;;;;;3.63;3.42;;;;;;;7.98;100.00;100586.22;6052826;23;20045;-72
2023/12/30 09:13:54;;;;;;;4.40;4.05;;;;;;;7.83;100.00;100537.22;6023784;23;20148;-71
2023/12/30 09:16:21;;;;;;;3.60;3.42;;;;;;;8.08;100.00;100568.34;6052091;23;20018;-71
2023/12/30 09:18:47;;;;;;;3.90;3.70;;;;;;;8.10;100.00;100551.69;6052611;23;20215;-72
2023/12/30 09:21:14;;;;;;;4.65;4.25;;;;;;;8.06;100.00;100534.47;6050749;23;20031;-70
2023/12/30 09:23:40;;;;;;;8.88;3.45;;;;;;;7.98;100.00;100508.66;6026256;23;20035;-71
2023/12/30 09:26:07;;;;;;;4.28;3.97;;;;;;;7.59;100.00;100438.97;6054747;23;20771;-71
2023/12/30 09:28:34;;;;;;;16.42;4.78;;;;;;;7.87;100.00;100465.63;6024914;23;20054;-70
2023/12/30 09:31:01;;;;;;;9.30;4.80;;;;;;;8.24;100.00;100514.50;6024689;23;20954;-70
2023/12/30 09:33:28;;;;;;;3.70;3.55;;;;;;;8.32;100.00;100501.91;6052482;23;20021;-71
2023/12/30 09:35:55;;;;;;;9.32;3.92;;;;;;;8.23;100.00;100467.50;6026307;23;20234;-70
2023/12/30 09:38:25;;;;;;;4.10;3.90;;;;;;;8.31;100.00;100471.44;6053469;23;20022;-69
2023/12/30 09:40:53;;;;;;;3.63;3.42;;;;;;;8.35;100.00;100462.53;6020336;23;20019;-70
2023/12/30 09:43:26;;;;;;;6.22;4.05;;;;;;;7.28;100.00;100263.72;6051165;23;20050;-70
2023/12/30 09:45:54;;;;;;;3.75;3.55;;;;;;;8.47;100.00;100426.31;6051794;23;20064;-71
2023/12/30 09:48:25;;;;;;;4.30;4.00;;;;;;;8.42;100.00;100408.22;6059040;23;20039;-71
2023/12/30 09:50:56;;;;;;;8.95;3.80;;;;;;;8.51;100.00;100417.41;6052860;23;20331;-69
2023/12/30 09:53:24;;;;;;;3.78;3.58;;;;;;;8.33;100.00;100369.41;6028392;23;20057;-72
2023/12/30 09:55:52;;;;;;;4.72;4.40;;;;;;;8.22;100.00;100349.03;6054032;23;20022;-73
2023/12/30 09:58:20;;;;;;;3.70;3.60;;;;;;;8.67;100.00;100409.66;6053340;23;20010;-73
2023/12/30 10:00:46;;;;;;;3.80;3.60;;;;;;;8.46;100.00;100349.63;6033511;23;20087;-72
2023/12/30 10:03:14;;;;;;;4.50;4.20;;;;;;;8.64;100.00;100366.19;6056197;23;20101;-71
2023/12/30 10:05:41;;;;;;;5.28;4.20;;;;;;;8.65;100.00;100352.16;6052554;23;20072;-72
2023/12/30 10:08:08;;;;;;;4.80;4.60;;;;;;;8.84;100.00;100354.72;6021635;23;20483;-73
2023/12/30 10:10:45;;;;;;;4.65;4.35;;;;;;;8.85;100.00;100309.31;6028158;23;20019;-73
2023/12/30 10:13:17;;;;;;;4.82;4.63;;;;;;;8.54;100.00;100268.19;6025333;23;20147;-72
2023/12/30 10:15:43;;;;;;;3.97;3.77;;;;;;;9.00;100.00;100336.47;6021355;23;20042;-72
2023/12/30 10:18:11;;;;;;;6.07;4.15;;;;;;;9.12;100.00;100337.59;5981523;23;20050;-72
2023/12/30 10:20:44;;;;;;;8.75;4.93;;;;;;;9.14;100.00;100318.28;6023108;23;20092;-71
2023/12/30 10:23:11;;;;;;;;;;;;;;;9.22;100.00;100306.53;5994370;23;20027;-71
2023/12/30 10:25:38;;;;;;;5.60;4.50;;;;;;;9.31;100.00;100306.91;6024236;23;19997;-71
2023/12/30 10:28:05;;;;;;;4.45;4.03;;;;;;;9.31;100.00;100285.13;5971745;23;20027;-73
2023/12/30 10:30:32;;;;;;;3.88;3.67;;;;;;;9.14;100.00;100237.13;6022857;23;20103;-72
2023/12/30 10:33:06;;;;;;;4.55;4.35;;;;;;;8.70;100.00;100142.66;6027649;23;20030;-75
2023/12/30 10:35:34;;;;;;;4.55;4.25;;;;;;;8.93;100.00;100163.19;6026909;23;20427;-72
2023/12/30 10:38:04;;;;;;;4.15;3.92;;;;;;;9.39;100.00;100241.03;6024728;23;20659;-72
2023/12/30 10:40:31;;;;;;;4.25;4.05;;;;;;;9.44;100.00;100233.78;6021337;23;20097;-74
2023/12/30 10:42:57;;;;;;;4.75;4.53;;;;;;;8.46;100.00;100059.38;5995388;23;20355;-72
2023/12/30 10:45:24;;;;;;;4.72;3.90;;;;;;;9.56;100.00;100227.84;6030399;23;20039;-72
2023/12/30 10:47:54;;;;;;;4.15;3.90;;;;;;;8.74;100.00;100074.41;6014527;23;20038;-72
2023/12/30 10:50:22;;;;;;;4.65;4.32;;;;;;;9.55;100.00;100188.63;6028618;23;20459;-73
2023/12/30 10:53:01;;;;;;;4.38;4.05;;;;;;;9.46;100.00;100192.63;6026832;23;20018;-73
2023/12/30 10:55:33;;;;;;;4.20;3.90;;;;;;;9.57;100.00;100239.16;6014364;23;20035;-73
2023/12/30 10:58:06;;;;;;;6.40;5.25;;;;;;;9.14;100.00;100169.06;6026428;23;20470;-71
2023/12/30 11:00:35;;;;;;;4.00;3.80;;;;;;;9.43;100.00;100212.91;6024820;23;20184;-72
2023/12/30 11:03:04;;;;;;;5.25;4.95;;;;;;;9.52;100.00;100241.19;6001260;23;20146;-72
2023/12/30 11:05:38;;;;;;;4.13;3.92;;;;;;;9.27;100.00;100199.81;6030725;23;20250;-71
2023/12/30 11:08:05;;;;;;;4.30;4.10;;;;;;;9.55;100.00;100244.47;6026008;23;20050;-72
2023/12/30 11:10:33;;;;;;;4.60;4.30;;;;;;;9.34;100.00;100211.59;6051594;23;20311;-72
2023/12/30 11:12:59;;;;;;;5.47;5.05;;;;;;;9.41;100.00;100243.56;6048787;23;20035;-71
2023/12/30 11:15:29;;;;;;;4.40;4.10;;;;;;;9.47;100.00;100267.63;6030983;23;20149;-69
2023/12/30 11:17:59;;;;;;;4.25;4.00;;;;;;;9.48;100.00;100237.91;6029306;23;20015;-71
2023/12/30 11:20:31;;;;;;;4.57;4.15;;;;;;;9.50;100.00;100236.06;6038431;23;20285;-71
2023/12/30 11:23:03;;;;;;;6.00;5.70;;;;;;;9.40;100.00;100234.84;5989402;23;20026;-71
2023/12/30 11:25:45;;;;;;;4.30;3.92;;;;;;;9.66;100.00;100284.97;6052502;23;20089;-71
2023/12/30 11:28:22;;;;;;;4.45;4.15;;;;;;;9.02;100.00;100163.63;6052433;23;20018;-71